Time;durP1;ratioP1;P1;durP2;ratioP2;P2;SDS_P1;SDS_P2;PMS_P1;PMS_P2;Temp;Humidity;BMP_temperature;BMP_pressure;BME280_temperature;BME280_humidity;BME280_pressure;Samples;Min_cycle;Max_cycle;Signal;HPM_P1;HPM_P2
2023/07/12 00:00:53;;;;;;;;;;;17.50;82.50;;;;;;6162798;23;19919;-88
2023/07/12 00:03:19;;;;;;;;;;;17.50;82.60;;;;;;6159837;23;20358;-88
2023/07/12 00:05:44;;;;;;;;;;;17.50;82.70;;;;;;6137491;23;19924;-89
2023/07/12 00:08:17;;;;;;;;;;;17.50;82.90;;;;;;6177656;23;20288;-90
2023/07/12 00:10:42;;;;;;;;;;;17.50;82.80;;;;;;6162074;23;20397;-88
2023/07/12 00:13:09;;;;;;;;;;;17.50;83.00;;;;;;6185553;23;19920;-89
2023/07/12 00:15:36;;;;;;;;;;;17.40;83.00;;;;;;6162333;23;20264;-89
2023/07/12 00:18:02;;;;;;;;;;;17.40;83.10;;;;;;6176599;23;19986;-88
2023/07/12 00:20:35;;;;;;;;;;;17.40;83.00;;;;;;6161871;23;19924;-88
2023/07/12 00:23:01;;;;;;;;;;;17.30;82.90;;;;;;6185440;23;19999;-88
2023/07/12 00:25:29;;;;;;;;;;;17.20;82.80;;;;;;6159173;23;19948;-89
2023/07/12 00:27:55;;;;;;;;;;;17.20;82.70;;;;;;6177125;23;19933;-89
2023/07/12 00:30:29;;;;;;;;;;;17.20;82.80;;;;;;6187578;23;19924;-88
2023/07/12 00:32:56;;;;;;;;;;;17.20;82.80;;;;;;6160053;23;20224;-88
2023/07/12 00:35:23;;;;;;;;;;;17.20;83.00;;;;;;6187330;23;19924;-88
2023/07/12 00:37:50;;;;;;;;;;;17.20;83.00;;;;;;6149111;23;19920;-89
2023/07/12 00:40:23;;;;;;;;;;;17.10;83.20;;;;;;6176371;23;20544;-88
2023/07/12 00:42:53;;;;;;;;;;;17.10;83.30;;;;;;6155375;23;19927;-89
2023/07/12 00:45:19;;;;;;;;;;;17.10;83.20;;;;;;6157519;23;19926;-89
2023/07/12 00:47:45;;;;;;;;;;;17.00;83.20;;;;;;6154355;23;19983;-89
2023/07/12 00:50:16;;;;;;;;;;;17.00;83.20;;;;;;6147281;23;19920;-89
2023/07/12 00:52:43;;;;;;;;;;;17.00;83.30;;;;;;6179347;23;20326;-89
2023/07/12 00:55:27;;;;;;;;;;;17.00;83.40;;;;;;6108669;23;19921;-88
2023/07/12 00:57:53;;;;;;;;;;;17.00;83.40;;;;;;6158117;23;20534;-88
2023/07/12 01:00:18;;;;;;;;;;;16.90;83.40;;;;;;6132848;23;19924;-89
2023/07/12 01:02:45;;;;;;;;;;;16.90;83.60;;;;;;6106356;23;19959;-89
2023/07/12 01:05:12;;;;;;;;;;;16.90;83.60;;;;;;6157192;23;19995;-88
2023/07/12 01:07:37;;;;;;;;;;;16.90;83.50;;;;;;6146938;23;19920;-89
2023/07/12 01:10:03;;;;;;;;;;;16.80;83.60;;;;;;6132560;23;20406;-89
2023/07/12 01:12:29;;;;;;;;;;;16.80;83.60;;;;;;6130376;23;19928;-88
2023/07/12 01:14:57;;;;;;;;;;;16.80;83.70;;;;;;6132581;23;20355;-88
2023/07/12 01:17:26;;;;;;;;;;;16.80;83.60;;;;;;6147789;23;19975;-88
2023/07/12 01:19:54;;;;;;;;;;;16.80;83.50;;;;;;6156377;23;20019;-88
2023/07/12 01:22:19;;;;;;;;;;;16.70;83.60;;;;;;6106411;23;20229;-89
2023/07/12 01:24:45;;;;;;;;;;;16.70;83.60;;;;;;6108339;23;19924;-89
2023/07/12 01:27:14;;;;;;;;;;;16.70;83.50;;;;;;6098417;23;19934;-89
2023/07/12 01:29:40;;;;;;;;;;;16.70;83.40;;;;;;6156981;23;19927;-89
2023/07/12 01:32:06;;;;;;;;;;;16.70;83.30;;;;;;6130532;23;19924;-88
2023/07/12 01:34:31;;;;;;;;;;;16.60;83.20;;;;;;6131624;23;20354;-88
2023/07/12 01:36:57;;;;;;;;;;;16.60;83.20;;;;;;6149397;23;19970;-89
2023/07/12 01:39:24;;;;;;;;;;;16.60;83.10;;;;;;6157744;23;19966;-88
2023/07/12 01:41:50;;;;;;;;;;;16.60;83.30;;;;;;6158968;23;19920;-89
2023/07/12 01:44:15;;;;;;;;;;;16.50;83.10;;;;;;6156520;23;19924;-89
2023/07/12 01:46:41;;;;;;;;;;;16.50;83.00;;;;;;6098918;23;19921;-89
2023/07/12 01:49:09;;;;;;;;;;;16.50;82.90;;;;;;6119628;23;19975;-89
2023/07/12 01:51:35;;;;;;;;;;;16.50;82.90;;;;;;6171263;23;19923;-89
2023/07/12 01:54:01;;;;;;;;;;;16.50;82.80;;;;;;6187039;23;19986;-88
2023/07/12 01:56:26;;;;;;;;;;;16.50;82.60;;;;;;6183791;23;19916;-89
2023/07/12 01:58:52;;;;;;;;;;;16.50;82.60;;;;;;6183109;23;19924;-89
2023/07/12 02:01:18;;;;;;;;;;;16.50;82.70;;;;;;6213707;23;19927;-89
2023/07/12 02:03:43;;;;;;;;;;;16.50;82.50;;;;;;6186743;23;20327;-89
2023/07/12 02:06:09;;;;;;;;;;;16.50;82.50;;;;;;6186834;23;19927;-89
2023/07/12 02:08:37;;;;;;;;;;;16.50;82.50;;;;;;6120038;23;19986;-89
2023/07/12 02:11:03;;;;;;;;;;;16.40;82.40;;;;;;6138628;23;19920;-88
2023/07/12 02:13:29;;;;;;;;;;;16.50;82.30;;;;;;6186957;23;19920;-88
2023/07/12 02:15:54;;;;;;;;;;;16.40;82.20;;;;;;6188158;23;19924;-87
2023/07/12 02:18:20;;;;;;;;;;;16.40;82.10;;;;;;6127926;23;19924;-89
2023/07/12 02:20:46;;;;;;;;;;;16.40;82.00;;;;;;6188154;23;19927;-90
2023/07/12 02:23:11;;;;;;;;;;;16.40;82.10;;;;;;6186490;23;19920;-88
2023/07/12 02:25:37;;;;;;;;;;;16.40;81.90;;;;;;6163770;23;19920;-90
2023/07/12 02:28:03;;;;;;;;;;;16.40;81.70;;;;;;6154187;23;19919;-88
2023/07/12 02:30:29;;;;;;;;;;;16.40;81.60;;;;;;6188240;23;19924;-89
2023/07/12 02:32:57;;;;;;;;;;;16.50;81.60;;;;;;6150808;23;19924;-89
2023/07/12 02:35:29;;;;;;;;;;;16.50;81.80;;;;;;6187974;23;19927;-89
2023/07/12 02:37:58;;;;;;;;;;;16.50;81.50;;;;;;6180351;23;19920;-91
2023/07/12 02:40:25;;;;;;;;;;;16.50;81.80;;;;;;6188112;23;19920;-89
2023/07/12 02:42:51;;;;;;;;;;;16.50;81.70;;;;;;6148548;23;19920;-89
2023/07/12 02:45:16;;;;;;;;;;;16.50;81.90;;;;;;6187487;23;19926;-88
2023/07/12 02:47:42;;;;;;;;;;;16.50;81.90;;;;;;6140404;23;19974;-88
2023/07/12 02:50:08;;;;;;;;;;;16.40;82.10;;;;;;6188175;23;19947;-89
2023/07/12 02:52:34;;;;;;;;;;;16.40;82.00;;;;;;6156212;23;20429;-88
2023/07/12 02:54:59;;;;;;;;;;;16.40;82.20;;;;;;6183775;23;19927;-89
2023/07/12 02:57:25;;;;;;;;;;;16.40;82.40;;;;;;6136644;23;20503;-88
2023/07/12 02:59:51;;;;;;;;;;;16.40;82.70;;;;;;6135324;23;19924;-89
2023/07/12 03:02:19;;;;;;;;;;;16.30;82.90;;;;;;6158920;23;19958;-89
2023/07/12 03:04:45;;;;;;;;;;;16.20;82.90;;;;;;6159371;23;19925;-89
2023/07/12 03:07:11;;;;;;;;;;;16.20;83.00;;;;;;6149608;23;20349;-89
2023/07/12 03:09:37;;;;;;;;;;;16.20;83.00;;;;;;6157517;23;19972;-88
2023/07/12 03:12:03;;;;;;;;;;;16.20;83.00;;;;;;6156547;23;19921;-88
2023/07/12 03:14:31;;;;;;;;;;;16.10;82.90;;;;;;6128061;23;19928;-89
2023/07/12 03:16:56;;;;;;;;;;;16.10;83.00;;;;;;6150679;23;19924;-89
2023/07/12 03:19:22;;;;;;;;;;;16.10;83.20;;;;;;6131202;23;20351;-89
2023/07/12 03:21:48;;;;;;;;;;;16.10;83.00;;;;;;6157706;23;20394;-89
2023/07/12 03:24:14;;;;;;;;;;;16.10;83.00;;;;;;6155674;23;19995;-89
2023/07/12 03:26:39;;;;;;;;;;;16.10;83.00;;;;;;6152431;23;19975;-89
2023/07/12 03:29:05;;;;;;;;;;;16.10;83.20;;;;;;6153808;23;19925;-88
2023/07/12 03:31:33;;;;;;;;;;;16.00;83.20;;;;;;6158034;23;19930;-89
2023/07/12 03:34:01;;;;;;;;;;;16.00;83.20;;;;;;6155865;23;20635;-89
2023/07/12 03:36:30;;;;;;;;;;;16.00;83.10;;;;;;6153925;23;19923;-91
2023/07/12 03:38:56;;;;;;;;;;;16.00;83.10;;;;;;6155106;23;19925;-89
2023/07/12 03:41:22;;;;;;;;;;;16.00;83.30;;;;;;6158036;23;19920;-91
2023/07/12 03:43:49;;;;;;;;;;;16.00;83.20;;;;;;6155836;23;19924;-91
2023/07/12 03:46:17;;;;;;;;;;;16.00;82.80;;;;;;6155992;23;19920;-90
2023/07/12 03:48:43;;;;;;;;;;;16.00;82.90;;;;;;6102086;23;19983;-91
2023/07/12 03:51:10;;;;;;;;;;;16.10;82.80;;;;;;6161974;23;19920;-90
2023/07/12 03:53:38;;;;;;;;;;;16.10;82.60;;;;;;6159460;23;19935;-91
2023/07/12 03:56:09;;;;;;;;;;;16.10;82.40;;;;;;6162891;23;19920;-91
2023/07/12 03:58:36;;;;;;;;;;;16.20;82.60;;;;;;6177734;23;19920;-90
2023/07/12 04:01:05;;;;;;;;;;;16.20;82.50;;;;;;6187492;23;20314;-91
2023/07/12 04:03:30;;;;;;;;;;;16.20;82.60;;;;;;6183664;23;19927;-89
2023/07/12 04:05:56;;;;;;;;;;;16.20;82.60;;;;;;6187689;23;20429;-90
2023/07/12 04:08:22;;;;;;;;;;;16.20;82.40;;;;;;6164209;23;19919;-89
2023/07/12 04:10:52;;;;;;;;;;;16.20;82.60;;;;;;6186916;23;19920;-90
2023/07/12 04:13:17;;;;;;;;;;;16.20;82.50;;;;;;6136717;23;19943;-90
2023/07/12 04:15:43;;;;;;;;;;;16.20;82.50;;;;;;6187416;23;19920;-89
2023/07/12 04:18:09;;;;;;;;;;;16.20;82.70;;;;;;6149696;23;19991;-91
2023/07/12 04:20:38;;;;;;;;;;;16.20;82.80;;;;;;6150958;23;20326;-89
2023/07/12 04:23:04;;;;;;;;;;;16.20;82.60;;;;;;6208262;23;19924;-90
2023/07/12 04:25:30;;;;;;;;;;;16.20;82.80;;;;;;6162891;23;19920;-90
2023/07/12 04:27:55;;;;;;;;;;;16.20;82.80;;;;;;6177159;23;19924;-89
2023/07/12 04:30:21;;;;;;;;;;;16.20;82.80;;;;;;6187232;23;19927;-89
2023/07/12 04:32:47;;;;;;;;;;;16.10;83.00;;;;;;6185717;23;19947;-89
2023/07/12 04:35:14;;;;;;;;;;;16.10;82.90;;;;;;6137555;23;20469;-91
2023/07/12 04:37:52;;;;;;;;;;;16.10;82.80;;;;;;6179576;23;19924;-89
2023/07/12 04:40:18;;;;;;;;;;;16.20;82.90;;;;;;6187115;23;19975;-90
2023/07/12 04:42:43;;;;;;;;;;;16.20;82.80;;;;;;6160369;23;19930;-89
2023/07/12 04:45:12;;;;;;;;;;;16.10;82.90;;;;;;6186811;23;19919;-89
2023/07/12 04:47:38;;;;;;;;;;;16.20;82.80;;;;;;6177595;23;19967;-91
2023/07/12 04:50:04;;;;;;;;;;;16.10;82.90;;;;;;6187343;23;20003;-90
2023/07/12 04:52:33;;;;;;;;;;;16.10;82.90;;;;;;6184430;23;20405;-90
2023/07/12 04:55:01;;;;;;;;;;;16.10;82.80;;;;;;6186843;23;19974;-89
2023/07/12 04:57:27;;;;;;;;;;;16.10;82.80;;;;;;6175068;23;20046;-91
2023/07/12 04:59:53;;;;;;;;;;;16.10;83.10;;;;;;6208525;23;20359;-90
2023/07/12 05:02:18;;;;;;;;;;;16.10;83.00;;;;;;6114757;23;20054;-90
2023/07/12 05:04:44;;;;;;;;;;;16.10;83.10;;;;;;6132679;23;19931;-89
2023/07/12 05:07:10;;;;;;;;;;;16.10;83.20;;;;;;6169717;23;19920;-91
2023/07/12 05:09:36;;;;;;;;;;;16.20;83.30;;;;;;6180735;23;20294;-91
2023/07/12 05:12:02;;;;;;;;;;;16.20;83.10;;;;;;6184417;23;19927;-90
2023/07/12 05:14:27;;;;;;;;;;;16.40;83.20;;;;;;6135508;23;20322;-90
2023/07/12 05:16:53;;;;;;;;;;;16.40;83.00;;;;;;6153107;23;19977;-90
2023/07/12 05:19:18;;;;;;;;;;;16.50;83.10;;;;;;6186428;23;19995;-90
2023/07/12 05:21:44;;;;;;;;;;;16.60;83.00;;;;;;6163095;23;19920;-89
2023/07/12 05:24:12;;;;;;;;;;;16.70;82.90;;;;;;6186954;23;20045;-88
2023/07/12 05:26:38;;;;;;;;;;;16.70;82.50;;;;;;6157677;23;19920;-90
2023/07/12 05:29:04;;;;;;;;;;;16.70;82.50;;;;;;6135731;23;19920;-89
2023/07/12 05:31:29;;;;;;;;;;;16.80;82.50;;;;;;6163680;23;19952;-90
2023/07/12 05:33:57;;;;;;;;;;;16.80;82.40;;;;;;6161652;23;19924;-91
2023/07/12 05:36:23;;;;;;;;;;;16.90;82.00;;;;;;6184881;23;19920;-90
2023/07/12 05:38:54;;;;;;;;;;;16.90;81.70;;;;;;6184919;23;19927;-90
2023/07/12 05:41:20;;;;;;;;;;;17.00;81.60;;;;;;6188363;23;20347;-90
2023/07/12 05:43:46;;;;;;;;;;;17.00;81.50;;;;;;6186459;23;19931;-90
2023/07/12 05:46:11;;;;;;;;;;;17.10;81.50;;;;;;6137705;23;20029;-91
2023/07/12 05:48:37;;;;;;;;;;;17.20;81.30;;;;;;6180916;23;19924;-90
2023/07/12 05:51:04;;;;;;;;;;;17.30;81.40;;;;;;6187716;23;19927;-89
2023/07/12 05:53:30;;;;;;;;;;;17.40;81.10;;;;;;6186448;23;19991;-91
2023/07/12 05:55:58;;;;;;;;;;;17.40;81.30;;;;;;6188905;23;19963;-90
2023/07/12 05:58:24;;;;;;;;;;;17.50;80.80;;;;;;6180122;23;19924;-90
2023/07/12 06:00:58;;;;;;;;;;;17.50;80.50;;;;;;6188969;23;19920;-91
2023/07/12 06:03:24;;;;;;;;;;;17.60;80.00;;;;;;6187120;23;20389;-91
2023/07/12 06:06:07;;;;;;;;;;;17.50;80.50;;;;;;6188233;23;19920;-89
2023/07/12 06:08:33;;;;;;;;;;;17.60;80.50;;;;;;6179554;23;19919;-90
2023/07/12 06:11:00;;;;;;;;;;;17.60;80.10;;;;;;6185996;23;20397;-91
2023/07/12 06:13:26;;;;;;;;;;;17.50;79.70;;;;;;6211360;23;20310;-90
2023/07/12 06:15:52;;;;;;;;;;;17.60;80.10;;;;;;6187081;23;19920;-89
2023/07/12 06:18:18;;;;;;;;;;;17.60;80.60;;;;;;6142263;23;19920;-90
2023/07/12 06:20:44;;;;;;;;;;;17.60;80.20;;;;;;6188360;23;19920;-91
2023/07/12 06:23:09;;;;;;;;;;;17.60;80.10;;;;;;6136999;23;19920;-91
2023/07/12 06:25:35;;;;;;;;;;;17.70;79.90;;;;;;6138621;23;19963;-89
2023/07/12 06:28:03;;;;;;;;;;;17.70;80.00;;;;;;6154223;23;19920;-90
2023/07/12 06:30:32;;;;;;;;;;;17.70;79.60;;;;;;6188914;23;19926;-88
2023/07/12 06:33:10;;;;;;;;;;;17.70;79.50;;;;;;6136998;23;19983;-91
2023/07/12 06:35:38;;;;;;;;;;;17.70;80.00;;;;;;6163265;23;19946;-88
2023/07/12 06:38:04;;;;;;;;;;;17.70;79.70;;;;;;6179756;23;19945;-90
2023/07/12 06:40:30;;;;;;;;;;;17.80;80.10;;;;;;6163345;23;20346;-90
2023/07/12 06:42:58;;;;;;;;;;;17.80;80.30;;;;;;6161325;23;20258;-90
2023/07/12 06:45:26;;;;;;;;;;;18.00;79.70;;;;;;6188210;23;19931;-92
2023/07/12 06:48:12;;;;;;;;;;;18.10;78.60;;;;;;6177375;23;19924;-89
2023/07/12 06:50:39;;;;;;;;;;;18.20;78.70;;;;;;6159680;23;19930;-89
2023/07/12 06:53:04;;;;;;;;;;;18.30;78.00;;;;;;6175988;23;19935;-90
2023/07/12 06:55:32;;;;;;;;;;;18.40;78.30;;;;;;6129684;23;19920;-90
2023/07/12 06:58:20;;;;;;;;;;;18.50;78.10;;;;;;6143422;23;19920;-89
2023/07/12 07:00:48;;;;;;;;;;;18.50;77.90;;;;;;6165753;23;19928;-90
2023/07/12 07:03:15;;;;;;;;;;;18.40;77.50;;;;;;6161390;23;19931;-90
2023/07/12 07:05:43;;;;;;;;;;;18.20;78.20;;;;;;6179390;23;19998;-89
2023/07/12 07:08:08;;;;;;;;;;;18.10;79.00;;;;;;6170665;23;20335;-89
2023/07/12 07:10:34;;;;;;;;;;;18.00;78.40;;;;;;6153353;23;19977;-87
2023/07/12 07:13:00;;;;;;;;;;;18.00;78.70;;;;;;6177318;23;19927;-90
2023/07/12 07:15:34;;;;;;;;;;;18.00;77.80;;;;;;6179703;23;20641;-91
2023/07/12 07:18:39;;;;;;;;;;;18.00;77.50;;;;;;6142403;23;20039;-92
2023/07/12 07:21:05;;;;;;;;;;;18.00;77.50;;;;;;6165429;23;19924;-88
2023/07/12 07:23:33;;;;;;;;;;;18.00;77.70;;;;;;6145485;23;19931;-89
2023/07/12 07:26:06;;;;;;;;;;;18.00;77.40;;;;;;6175279;23;20003;-90
2023/07/12 07:28:32;;;;;;;;;;;18.10;77.90;;;;;;6161635;23;19952;-93
2023/07/12 07:30:58;;;;;;;;;;;18.20;77.40;;;;;;6180724;23;19947;-90
2023/07/12 07:33:24;;;;;;;;;;;18.30;77.20;;;;;;6148723;23;19970;-91
2023/07/12 07:35:53;;;;;;;;;;;18.30;77.50;;;;;;6142611;23;19928;-91
2023/07/12 07:38:25;;;;;;;;;;;18.40;77.60;;;;;;6146082;23;19924;-89
2023/07/12 07:40:51;;;;;;;;;;;18.40;76.50;;;;;;6182525;23;20726;-91
2023/07/12 07:43:22;;;;;;;;;;;18.30;76.90;;;;;;6178960;23;19920;-88
2023/07/12 07:45:48;;;;;;;;;;;18.20;77.50;;;;;;6182220;23;19924;-88
2023/07/12 07:48:16;;;;;;;;;;;18.00;77.50;;;;;;6174927;23;19969;-90
2023/07/12 07:50:42;;;;;;;;;;;18.00;77.70;;;;;;6156328;23;19920;-90
2023/07/12 07:53:11;;;;;;;;;;;17.90;78.00;;;;;;6127358;23;19962;-93
2023/07/12 07:55:41;;;;;;;;;;;17.90;78.00;;;;;;6145761;23;20331;-88
2023/07/12 07:58:09;;;;;;;;;;;18.00;78.60;;;;;;6173193;23;20250;-90
2023/07/12 08:00:36;;;;;;;;;;;18.00;78.80;;;;;;6181267;23;19920;-89
2023/07/12 08:03:05;;;;;;;;;;;18.00;79.10;;;;;;6179685;23;19951;-89
2023/07/12 08:05:40;;;;;;;;;;;18.00;78.90;;;;;;6155643;23;20617;-94
2023/07/12 08:08:06;;;;;;;;;;;17.90;79.10;;;;;;6172998;23;20746;-92
2023/07/12 08:10:32;;;;;;;;;;;17.80;79.30;;;;;;6180491;23;20582;-91
2023/07/12 08:13:01;;;;;;;;;;;17.70;78.60;;;;;;6150375;23;19955;-90
2023/07/12 08:15:27;;;;;;;;;;;17.60;79.30;;;;;;6139465;23;19951;-89
2023/07/12 08:18:03;;;;;;;;;;;17.60;79.60;;;;;;6171194;23;19923;-90
2023/07/12 08:20:29;;;;;;;;;;;17.60;79.10;;;;;;6179233;23;19959;-90
2023/07/12 08:22:55;;;;;;;;;;;17.50;79.10;;;;;;6177412;23;19924;-91
2023/07/12 08:25:21;;;;;;;;;;;17.50;78.80;;;;;;6129941;23;19975;-88
2023/07/12 08:27:46;;;;;;;;;;;17.50;78.80;;;;;;6145243;23;19924;-90
2023/07/12 08:30:14;;;;;;;;;;;17.50;78.70;;;;;;6116999;23;19919;-90
2023/07/12 08:32:43;;;;;;;;;;;17.60;78.30;;;;;;6148615;23;19987;-90
2023/07/12 08:35:11;;;;;;;;;;;17.70;77.60;;;;;;6152887;23;20398;-91
2023/07/12 08:37:40;;;;;;;;;;;17.80;77.30;;;;;;6174622;23;20703;-93
2023/07/12 08:40:11;;;;;;;;;;;17.90;76.90;;;;;;6183520;23;19920;-90
2023/07/12 08:42:39;;;;;;;;;;;18.00;76.30;;;;;;6175640;23;19939;-95
2023/07/12 08:45:15;;;;;;;;;;;18.10;77.20;;;;;;6176327;23;19920;-90
2023/07/12 08:47:44;;;;;;;;;;;18.20;77.30;;;;;;6144429;23;19920;-89
2023/07/12 08:50:19;;;;;;;;;;;18.20;77.20;;;;;;6177752;23;20030;-91
2023/07/12 08:52:47;;;;;;;;;;;18.30;77.30;;;;;;6128330;23;19927;-89
2023/07/12 08:55:19;;;;;;;;;;;18.30;77.70;;;;;;6139647;23;19924;-93
2023/07/12 08:58:08;;;;;;;;;;;18.40;77.60;;;;;;6170280;23;19920;-89
2023/07/12 09:00:34;;;;;;;;;;;18.30;77.00;;;;;;6166250;23;20417;-92
2023/07/12 09:03:00;;;;;;;;;;;18.40;77.50;;;;;;6177394;23;19924;-90
2023/07/12 09:05:33;;;;;;;;;;;18.30;77.00;;;;;;6178638;23;20637;-90
2023/07/12 09:08:04;;;;;;;;;;;18.30;76.90;;;;;;6165106;23;19920;-91
2023/07/12 09:10:30;;;;;;;;;;;18.40;76.50;;;;;;6203082;23;19927;-90
2023/07/12 09:12:57;;;;;;;;;;;18.50;75.40;;;;;;6176557;23;19927;-89
2023/07/12 09:15:23;;;;;;;;;;;18.70;76.50;;;;;;6178179;23;19931;-91
2023/07/12 09:17:49;;;;;;;;;;;18.80;74.70;;;;;;6144376;23;19931;-89
2023/07/12 09:20:26;;;;;;;;;;;18.90;74.30;;;;;;6187662;23;19924;-90
2023/07/12 09:22:53;;;;;;;;;;;19.00;75.10;;;;;;6175495;23;19947;-92
2023/07/12 09:25:34;;;;;;;;;;;19.10;73.60;;;;;;6179152;23;20012;-89
2023/07/12 09:28:00;;;;;;;;;;;19.10;73.70;;;;;;6171999;23;19931;-89
2023/07/12 09:30:34;;;;;;;;;;;19.20;72.70;;;;;;6130752;23;19924;-89
2023/07/12 09:33:03;;;;;;;;;;;19.30;71.90;;;;;;6176619;23;20003;-89
2023/07/12 09:35:31;;;;;;;;;;;19.30;72.50;;;;;;6153581;23;19981;-91
2023/07/12 09:38:00;;;;;;;;;;;19.40;71.00;;;;;;6146939;23;19923;-96
2023/07/12 09:40:28;;;;;;;;;;;19.50;72.20;;;;;;6179398;23;19928;-91
2023/07/12 09:42:56;;;;;;;;;;;19.50;71.80;;;;;;6168011;23;19924;-96
2023/07/12 09:45:22;;;;;;;;;;;19.50;70.80;;;;;;6158272;23;20261;-92
2023/07/12 09:48:01;;;;;;;;;;;19.30;70.80;;;;;;6126016;23;19983;-90
2023/07/12 09:50:40;;;;;;;;;;;;;;;;;;;;;
2023/07/12 09:56:05;;;;;;;;;;;19.00;70.30;;;;;;6158781;23;20003;-93
2023/07/12 09:58:35;;;;;;;;;;;18.90;70.80;;;;;;6143211;23;19924;-90
2023/07/12 10:01:04;;;;;;;;;;;18.80;71.70;;;;;;6179302;23;20402;-91
2023/07/12 10:03:47;;;;;;;;;;;18.90;72.10;;;;;;6177205;23;19947;-93
2023/07/12 10:06:26;;;;;;;;;;;19.00;71.80;;;;;;6178007;23;20003;-91
2023/07/12 10:09:04;;;;;;;;;;;19.10;71.90;;;;;;6173018;23;19920;-91
2023/07/12 10:11:39;;;;;;;;;;;19.20;72.00;;;;;;6178638;23;19935;-94
2023/07/12 10:14:09;;;;;;;;;;;19.30;71.80;;;;;;6177173;23;19924;-96
2023/07/12 10:17:10;;;;;;;;;;;19.30;71.50;;;;;;6175209;23;19997;-91
2023/07/12 10:22:56;;;;;;;;;;;19.50;68.00;;;;;;6183491;22;19935;-91
2023/07/12 10:25:54;;;;;;;;;;;19.70;67.80;;;;;;6132731;23;19924;-88
2023/07/12 10:28:32;;;;;;;;;;;19.90;68.50;;;;;;6138935;23;19999;-92
2023/07/12 10:31:11;;;;;;;;;;;20.00;68.60;;;;;;6179942;23;19924;-91
2023/07/12 10:33:42;;;;;;;;;;;20.00;68.60;;;;;;6176104;23;20052;-90
2023/07/12 10:36:13;;;;;;;;;;;20.00;69.30;;;;;;6178563;23;19928;-91
2023/07/12 10:38:39;;;;;;;;;;;20.10;68.10;;;;;;6174357;23;20034;-89
2023/07/12 10:41:32;;;;;;;;;;;20.20;68.00;;;;;;6180183;23;19990;-93
2023/07/12 10:44:17;;;;;;;;;;;20.30;67.10;;;;;;6143743;23;19920;-94
2023/07/12 10:46:45;;;;;;;;;;;20.30;68.20;;;;;;6166463;23;19931;-90
2023/07/12 10:49:19;;;;;;;;;;;20.20;66.50;;;;;;6123848;23;19982;-90
2023/07/12 10:52:03;;;;;;;;;;;20.10;66.30;;;;;;6156974;23;20154;-89
2023/07/12 10:54:29;;;;;;;;;;;20.00;64.40;;;;;;6101989;23;19924;-90
2023/07/12 10:56:55;;;;;;;;;;;19.90;64.90;;;;;;6171267;23;20059;-90
2023/07/12 10:59:47;;;;;;;;;;;19.90;66.80;;;;;;6173598;23;20505;-89
2023/07/12 11:02:26;;;;;;;;;;;20.00;67.30;;;;;;6174554;23;19939;-90
2023/07/12 11:04:52;;;;;;;;;;;20.00;66.90;;;;;;6177943;23;19920;-89
2023/07/12 11:07:17;;;;;;;;;;;20.00;67.30;;;;;;6125388;23;20349;-90
2023/07/12 11:09:46;;;;;;;;;;;20.00;67.90;;;;;;6174294;23;19931;-89
2023/07/12 11:12:13;;;;;;;;;;;20.10;68.00;;;;;;6156274;23;19947;-91
2023/07/12 11:14:38;;;;;;;;;;;20.10;65.30;;;;;;6127068;23;20013;-91
2023/07/12 11:17:10;;;;;;;;;;;20.00;64.90;;;;;;6167371;23;20574;-90
2023/07/12 11:19:38;;;;;;;;;;;20.00;64.90;;;;;;6177534;23;19983;-92
2023/07/12 11:22:11;;;;;;;;;;;20.10;64.00;;;;;;6160979;23;19920;-88
2023/07/12 11:25:01;;;;;;;;;;;20.00;65.50;;;;;;6152768;23;19946;-92
2023/07/12 11:27:26;;;;;;;;;;;20.10;65.10;;;;;;6141661;23;19950;-90
2023/07/12 11:29:56;;;;;;;;;;;20.20;64.70;;;;;;6177468;23;19924;-91
2023/07/12 11:32:25;;;;;;;;;;;20.30;65.70;;;;;;6175217;23;19920;-90
2023/07/12 11:34:59;;;;;;;;;;;20.30;65.40;;;;;;6179389;23;19959;-91
2023/07/12 11:44:14;;;;;;;;;;;20.50;64.00;;;;;;6013816;23;19925;-92
2023/07/12 11:46:42;;;;;;;;;;;20.50;64.50;;;;;;6111361;23;19917;-89
2023/07/12 11:49:13;;;;;;;;;;;20.60;64.40;;;;;;6032564;23;19984;-90
2023/07/12 11:51:43;;;;;;;;;;;20.60;64.60;;;;;;6069637;23;20510;-92
2023/07/12 11:54:20;;;;;;;;;;;20.60;63.60;;;;;;6053923;23;19924;-93
2023/07/12 11:57:06;;;;;;;;;;;20.60;64.00;;;;;;6153074;23;19931;-94
2023/07/12 11:59:36;;;;;;;;;;;20.60;63.90;;;;;;6152613;23;19924;-90
2023/07/12 12:02:05;;;;;;;;;;;20.70;63.40;;;;;;6182721;23;19974;-92
2023/07/12 12:04:31;;;;;;;;;;;20.80;63.00;;;;;;6153675;23;19924;-90
2023/07/12 12:07:20;;;;;;;;;;;20.90;63.80;;;;;;6178176;23;19920;-91
2023/07/12 12:09:48;;;;;;;;;;;21.00;63.10;;;;;;6137642;23;19920;-93
2023/07/12 12:12:26;;;;;;;;;;;21.00;61.70;;;;;;6160981;23;19966;-93
2023/07/12 12:14:54;;;;;;;;;;;20.90;61.90;;;;;;6135151;23;19985;-92
2023/07/12 12:17:25;;;;;;;;;;;20.70;61.20;;;;;;6155864;23;19943;-90
2023/07/12 12:20:09;;;;;;;;;;;20.60;60.50;;;;;;6131101;23;19981;-90
2023/07/12 12:22:39;;;;;;;;;;;20.50;60.50;;;;;;6174213;23;19921;-95
2023/07/12 12:25:16;;;;;;;;;;;20.60;61.90;;;;;;6177662;23;19923;-91
2023/07/12 12:27:43;;;;;;;;;;;20.60;60.90;;;;;;6166819;23;19931;-89
2023/07/12 12:30:15;;;;;;;;;;;20.70;59.40;;;;;;6175645;23;19978;-89
2023/07/12 12:32:41;;;;;;;;;;;20.60;59.80;;;;;;6149412;23;20346;-90
2023/07/12 12:35:13;;;;;;;;;;;20.70;60.30;;;;;;6174989;23;20610;-89
2023/07/12 12:37:59;;;;;;;;;;;20.70;61.10;;;;;;6169578;23;19935;-95
2023/07/12 12:40:25;;;;;;;;;;;20.80;60.50;;;;;;6167676;23;20270;-92
2023/07/12 12:43:07;;;;;;;;;;;20.70;59.90;;;;;;6174513;23;19931;-92
2023/07/12 12:45:34;;;;;;;;;;;20.70;60.00;;;;;;6176575;23;19966;-89
2023/07/12 12:48:00;;;;;;;;;;;20.70;60.10;;;;;;6136852;23;19925;-91
2023/07/12 12:50:26;;;;;;;;;;;20.80;59.50;;;;;;6135189;23;20047;-92
2023/07/12 12:52:51;;;;;;;;;;;20.80;59.60;;;;;;6200426;23;19951;-92
2023/07/12 12:55:41;;;;;;;;;;;20.80;60.60;;;;;;6178367;23;19999;-91
2023/07/12 12:58:12;;;;;;;;;;;20.90;57.70;;;;;;6166483;23;20327;-93
2023/07/12 13:00:38;;;;;;;;;;;20.90;58.40;;;;;;6172990;23;19927;-91
2023/07/12 13:03:05;;;;;;;;;;;20.80;58.00;;;;;;6130964;23;20055;-90
2023/07/12 13:05:32;;;;;;;;;;;20.80;59.10;;;;;;6183912;23;19924;-93
2023/07/12 13:07:59;;;;;;;;;;;20.90;59.80;;;;;;6165852;23;20647;-91
2023/07/12 13:10:25;;;;;;;;;;;21.00;58.30;;;;;;6174776;23;19943;-90
2023/07/12 13:12:50;;;;;;;;;;;21.00;58.50;;;;;;6097154;23;20323;-91
2023/07/12 13:15:20;;;;;;;;;;;21.00;58.80;;;;;;6131945;23;20673;-92
2023/07/12 13:17:47;;;;;;;;;;;21.00;58.40;;;;;;6153570;23;19931;-91
2023/07/12 13:20:15;;;;;;;;;;;21.00;58.00;;;;;;6147466;23;19924;-91
2023/07/12 13:22:42;;;;;;;;;;;21.00;57.50;;;;;;6170326;23;19924;-92
2023/07/12 13:25:08;;;;;;;;;;;21.00;58.40;;;;;;6175900;23;19928;-88
2023/07/12 13:27:48;;;;;;;;;;;21.00;56.40;;;;;;6166438;23;19974;-90
2023/07/12 13:30:15;;;;;;;;;;;20.90;57.70;;;;;;6176285;23;19970;-90
2023/07/12 13:32:41;;;;;;;;;;;20.90;58.30;;;;;;6150525;23;19930;-90
2023/07/12 13:35:07;;;;;;;;;;;20.80;59.10;;;;;;6177067;23;20318;-89
2023/07/12 13:37:35;;;;;;;;;;;20.90;59.40;;;;;;6170670;23;19930;-91
2023/07/12 13:40:01;;;;;;;;;;;21.00;59.50;;;;;;6152521;23;19924;-90
2023/07/12 13:42:32;;;;;;;;;;;21.10;59.20;;;;;;6175889;23;19923;-94
2023/07/12 13:44:58;;;;;;;;;;;21.10;58.70;;;;;;6177708;23;19928;-92
2023/07/12 13:47:25;;;;;;;;;;;21.10;59.00;;;;;;6167972;23;19978;-90
2023/07/12 13:49:52;;;;;;;;;;;21.30;59.40;;;;;;6178224;23;19926;-90
2023/07/12 13:52:20;;;;;;;;;;;21.30;57.50;;;;;;6175245;23;20755;-91
2023/07/12 13:54:46;;;;;;;;;;;21.10;57.80;;;;;;6154089;23;19919;-90
2023/07/12 13:57:12;;;;;;;;;;;21.10;58.20;;;;;;6119285;23;19927;-93
2023/07/12 13:59:42;;;;;;;;;;;21.30;58.40;;;;;;6178500;23;20015;-90
2023/07/12 14:02:31;;;;;;;;;;;21.30;58.50;;;;;;6160658;23;19978;-90
2023/07/12 14:04:58;;;;;;;;;;;21.40;57.40;;;;;;6176796;23;20465;-91
2023/07/12 14:07:32;;;;;;;;;;;21.40;57.30;;;;;;6139481;23;19928;-91
2023/07/12 14:09:58;;;;;;;;;;;21.40;57.60;;;;;;6177377;23;20527;-91
2023/07/12 14:12:26;;;;;;;;;;;21.40;57.30;;;;;;6150260;23;19977;-89
2023/07/12 14:15:00;;;;;;;;;;;21.40;58.10;;;;;;6176202;23;20390;-91
2023/07/12 14:17:27;;;;;;;;;;;21.50;58.10;;;;;;6153277;23;19943;-94
2023/07/12 14:19:53;;;;;;;;;;;21.50;58.00;;;;;;6151305;23;19923;-91
2023/07/12 14:22:32;;;;;;;;;;;21.70;59.10;;;;;;6174403;23;20331;-91
2023/07/12 14:24:58;;;;;;;;;;;21.80;57.40;;;;;;6176164;23;19931;-91
2023/07/12 14:27:25;;;;;;;;;;;21.70;58.10;;;;;;6169342;23;19924;-89
2023/07/12 14:29:51;;;;;;;;;;;21.70;58.30;;;;;;6147216;23;19925;-90
2023/07/12 14:32:22;;;;;;;;;;;21.90;58.20;;;;;;6165060;23;19924;-93
2023/07/12 14:34:47;;;;;;;;;;;21.90;58.20;;;;;;6147526;23;20006;-92
2023/07/12 14:37:14;;;;;;;;;;;21.70;58.70;;;;;;6188250;23;20018;-92
2023/07/12 14:39:40;;;;;;;;;;;21.70;58.50;;;;;;6176597;23;19926;-91
2023/07/12 14:42:08;;;;;;;;;;;21.50;59.10;;;;;;6135497;23;20346;-88